Time;durP1;ratioP1;P1;durP2;ratioP2;P2;SDS_P1;SDS_P2;PMS_P1;PMS_P2;Temp;Humidity;BMP_temperature;BMP_pressure;BME280_temperature;BME280_humidity;BME280_pressure;Samples;Min_cycle;Max_cycle;Signal;HPM_P1;HPM_P2
2024/02/14 00:01:36;;;;;;;6.63;3.70;;;16.50;92.50;;;;;;5012904;28;20030;-45
2024/02/14 00:04:03;;;;;;;5.63;3.33;;;16.50;92.60;;;;;;5012737;28;20365;-45
2024/02/14 00:06:29;;;;;;;6.55;3.20;;;16.50;92.50;;;;;;5012222;28;20511;-45
2024/02/14 00:08:55;;;;;;;6.38;3.42;;;16.50;92.50;;;;;;5012630;28;20061;-44
2024/02/14 00:11:20;;;;;;;5.97;3.30;;;16.50;92.50;;;;;;5012967;28;20026;-45
2024/02/14 00:13:46;;;;;;;5.85;3.60;;;16.40;92.50;;;;;;5012769;28;20476;-44
2024/02/14 00:16:11;;;;;;;6.22;3.40;;;16.40;92.50;;;;;;5011942;28;20118;-45
2024/02/14 00:18:37;;;;;;;5.10;3.00;;;16.40;92.80;;;;;;5012263;28;20028;-43
2024/02/14 00:21:03;;;;;;;6.03;3.38;;;16.40;92.40;;;;;;5012220;28;20259;-46
2024/02/14 00:23:28;;;;;;;7.07;3.42;;;16.40;92.40;;;;;;5012064;28;20030;-45
2024/02/14 00:25:54;;;;;;;6.38;3.13;;;16.40;92.40;;;;;;5011820;28;20117;-44
2024/02/14 00:28:19;;;;;;;5.47;3.08;;;16.40;92.40;;;;;;5012074;28;20496;-44
2024/02/14 00:30:45;;;;;;;5.38;3.35;;;16.40;92.40;;;;;;5011912;28;20122;-44
2024/02/14 00:33:11;;;;;;;4.80;3.10;;;16.40;92.40;;;;;;5011957;28;20103;-45
2024/02/14 00:35:36;;;;;;;5.57;3.20;;;16.30;92.40;;;;;;5011882;28;20044;-45
2024/02/14 00:38:02;;;;;;;6.10;3.30;;;16.40;92.40;;;;;;5011764;28;20026;-43
2024/02/14 00:40:28;;;;;;;5.65;3.15;;;16.40;92.50;;;;;;5012230;28;20108;-44
2024/02/14 00:42:53;;;;;;;6.20;3.50;;;16.30;92.50;;;;;;5011702;28;20064;-44
2024/02/14 00:45:19;;;;;;;5.65;3.22;;;16.30;92.50;;;;;;5011624;28;20038;-41
2024/02/14 00:47:44;;;;;;;6.07;3.40;;;16.40;92.50;;;;;;5011941;28;20029;-44
2024/02/14 00:50:10;;;;;;;5.57;3.10;;;16.30;92.50;;;;;;5012378;28;20164;-44
2024/02/14 00:52:36;;;;;;;6.45;3.13;;;16.30;92.50;;;;;;5012051;28;20018;-45
2024/02/14 00:55:03;;;;;;;4.80;2.97;;;16.30;92.50;;;;;;5011814;28;20046;-44
2024/02/14 00:57:31;;;;;;;5.50;3.00;;;16.30;92.50;;;;;;5010690;28;20030;-44
2024/02/14 00:59:57;;;;;;;5.45;2.97;;;16.30;92.50;;;;;;5011878;28;20500;-42
2024/02/14 01:02:22;;;;;;;5.28;2.90;;;16.30;92.50;;;;;;5012085;28;20033;-44
2024/02/14 01:04:48;;;;;;;5.05;3.00;;;16.40;92.50;;;;;;5011534;28;20033;-44
2024/02/14 01:07:14;;;;;;;4.25;2.60;;;16.30;92.50;;;;;;5011485;28;20033;-43
2024/02/14 01:09:39;;;;;;;5.22;3.00;;;16.30;92.50;;;;;;5011452;28;20072;-44
2024/02/14 01:12:05;;;;;;;4.90;3.10;;;16.30;92.50;;;;;;5011727;28;20109;-44
2024/02/14 01:14:32;;;;;;;4.28;2.75;;;16.30;92.60;;;;;;5011493;28;20447;-44
2024/02/14 01:16:58;;;;;;;5.72;3.17;;;16.30;92.60;;;;;;5011331;28;20057;-44
2024/02/14 01:19:25;;;;;;;4.47;2.90;;;16.30;92.60;;;;;;5011546;28;20045;-45
2024/02/14 01:21:51;;;;;;;4.93;3.03;;;16.30;92.60;;;;;;5011587;28;20018;-43
2024/02/14 01:24:17;;;;;;;4.78;2.78;;;16.30;92.60;;;;;;5011405;28;20029;-44
2024/02/14 01:26:42;;;;;;;6.18;3.20;;;16.30;92.70;;;;;;5011706;28;20518;-44
2024/02/14 01:29:09;;;;;;;4.75;2.50;;;16.30;92.60;;;;;;5011532;28;20080;-44
2024/02/14 01:31:35;;;;;;;5.00;2.80;;;16.30;92.60;;;;;;5011350;28;20026;-43
2024/02/14 01:34:04;;;;;;;5.28;2.80;;;16.30;92.70;;;;;;5011309;28;20491;-44
2024/02/14 01:36:29;;;;;;;4.47;2.70;;;16.30;92.70;;;;;;5011222;28;20033;-44
2024/02/14 01:38:55;;;;;;;4.07;2.38;;;16.30;92.70;;;;;;5012365;28;20376;-44
2024/02/14 01:41:23;;;;;;;4.18;2.63;;;16.30;92.70;;;;;;5011479;28;20037;-45
2024/02/14 01:43:50;;;;;;;4.97;2.75;;;16.30;92.70;;;;;;5011302;28;20149;-44
2024/02/14 01:46:16;;;;;;;4.35;2.50;;;16.30;93.00;;;;;;5010990;28;20029;-42
2024/02/14 01:48:42;;;;;;;4.07;2.70;;;16.30;92.70;;;;;;5011086;28;20030;-44
2024/02/14 01:51:11;;;;;;;4.40;2.63;;;16.30;92.60;;;;;;5011118;28;20033;-45
2024/02/14 01:53:38;;;;;;;2.97;2.28;;;16.30;92.70;;;;;;5011640;28;20388;-44
2024/02/14 01:56:04;;;;;;;4.93;2.80;;;16.30;93.00;;;;;;5011039;28;20014;-42
2024/02/14 01:58:30;;;;;;;4.25;2.38;;;16.30;92.70;;;;;;5011043;28;20026;-44
2024/02/14 02:00:56;;;;;;;3.80;2.47;;;16.20;92.60;;;;;;5011368;28;20102;-44
2024/02/14 02:03:26;;;;;;;4.65;2.70;;;16.30;92.70;;;;;;5011073;28;20395;-42
2024/02/14 02:05:54;;;;;;;5.18;2.33;;;16.30;92.70;;;;;;5011124;28;20104;-45
2024/02/14 02:08:21;;;;;;;5.03;2.53;;;16.20;92.70;;;;;;5011723;28;20018;-44
2024/02/14 02:10:47;;;;;;;4.93;2.83;;;16.20;92.70;;;;;;5014943;28;20038;-42
2024/02/14 02:13:15;;;;;;;4.43;2.55;;;16.20;92.70;;;;;;5015117;28;20033;-44
2024/02/14 02:15:44;;;;;;;4.78;2.72;;;16.20;92.70;;;;;;5014636;28;20018;-44
2024/02/14 02:18:11;;;;;;;3.47;2.30;;;16.20;92.70;;;;;;5014081;28;20037;-44
2024/02/14 02:20:37;;;;;;;4.80;2.67;;;16.20;92.80;;;;;;5014906;28;20104;-45
2024/02/14 02:23:03;;;;;;;3.30;2.35;;;16.30;92.80;;;;;;5014353;28;20476;-43
2024/02/14 02:25:29;;;;;;;4.35;2.38;;;16.20;92.80;;;;;;5014009;28;20029;-45
2024/02/14 02:27:57;;;;;;;4.60;2.50;;;16.20;92.80;;;;;;5014131;28;20030;-44
2024/02/14 02:30:23;;;;;;;4.28;2.50;;;16.20;92.80;;;;;;5014209;28;20025;-44
2024/02/14 02:32:51;;;;;;;4.93;2.70;;;16.20;92.80;;;;;;5013989;28;20392;-43
2024/02/14 02:35:20;;;;;;;3.95;2.10;;;16.20;92.80;;;;;;5014173;28;20025;-44
2024/02/14 02:37:47;;;;;;;4.38;2.30;;;16.20;92.80;;;;;;5013965;28;20026;-45
2024/02/14 02:40:14;;;;;;;4.05;2.25;;;16.20;92.80;;;;;;5014040;28;20033;-44
2024/02/14 02:42:40;;;;;;;3.53;2.10;;;16.20;92.80;;;;;;5013980;28;20057;-39
2024/02/14 02:45:06;;;;;;;3.05;2.17;;;16.20;93.10;;;;;;5013651;28;20479;-44
2024/02/14 02:47:32;;;;;;;3.63;2.38;;;16.20;92.80;;;;;;5014244;28;20029;-42
2024/02/14 02:50:01;;;;;;;3.35;2.08;;;16.20;92.80;;;;;;5012925;28;20049;-45
2024/02/14 02:52:27;;;;;;;3.97;2.28;;;16.20;92.70;;;;;;5013992;28;20053;-45
2024/02/14 02:54:53;;;;;;;4.25;2.05;;;16.20;92.80;;;;;;5013665;28;20030;-44
2024/02/14 02:57:19;;;;;;;3.22;2.00;;;16.20;92.80;;;;;;5013758;28;20030;-45
2024/02/14 02:59:47;;;;;;;3.33;2.17;;;16.20;92.80;;;;;;5014235;28;20116;-43
2024/02/14 03:02:13;;;;;;;4.13;2.25;;;16.20;92.80;;;;;;5013618;28;20046;-42
2024/02/14 03:04:39;;;;;;;3.65;2.08;;;16.20;92.80;;;;;;5013337;28;20113;-43
2024/02/14 03:07:08;;;;;;;4.82;2.10;;;16.10;92.80;;;;;;5013461;28;20049;-44
2024/02/14 03:09:34;;;;;;;3.45;2.03;;;16.10;92.80;;;;;;5013445;28;20076;-45
2024/02/14 03:12:00;;;;;;;3.97;2.30;;;16.20;92.90;;;;;;5013908;28;20068;-44
2024/02/14 03:14:35;;;;;;;3.90;2.13;;;16.10;92.90;;;;;;5013041;28;20480;-45
2024/02/14 03:17:02;;;;;;;3.42;1.90;;;16.10;92.90;;;;;;5013360;28;20026;-45
2024/02/14 03:19:28;;;;;;;4.18;2.35;;;16.10;92.90;;;;;;5013308;28;20080;-44
2024/02/14 03:21:57;;;;;;;2.88;1.80;;;16.10;92.90;;;;;;5012905;28;20026;-44
2024/02/14 03:24:25;;;;;;;3.00;1.80;;;16.10;92.90;;;;;;5012800;28;20443;-44
2024/02/14 03:26:54;;;;;;;3.03;1.88;;;16.10;92.90;;;;;;5013306;28;20532;-45
2024/02/14 03:29:21;;;;;;;4.15;1.90;;;16.10;92.90;;;;;;5013294;28;20026;-42
2024/02/14 03:31:47;;;;;;;3.28;2.13;;;16.10;92.90;;;;;;5012079;28;20030;-44
2024/02/14 03:34:13;;;;;;;4.10;1.80;;;16.10;92.90;;;;;;5013052;28;20053;-43
2024/02/14 03:36:39;;;;;;;3.28;2.08;;;16.10;92.90;;;;;;5013419;28;20061;-45
2024/02/14 03:39:05;;;;;;;2.92;2.08;;;16.10;92.90;;;;;;5012998;28;20018;-44
2024/02/14 03:41:31;;;;;;;3.90;2.17;;;16.10;92.90;;;;;;5012824;28;20030;-41
2024/02/14 03:44:01;;;;;;;3.30;2.17;;;16.10;92.90;;;;;;5012708;28;20377;-44
2024/02/14 03:46:27;;;;;;;3.08;1.88;;;16.10;92.90;;;;;;5012665;28;20076;-44
2024/02/14 03:48:56;;;;;;;2.97;1.70;;;16.10;93.00;;;;;;5012639;28;20028;-45
2024/02/14 03:51:25;;;;;;;3.17;1.70;;;16.10;93.00;;;;;;5013361;28;20030;-45
2024/02/14 03:53:51;;;;;;;2.63;1.65;;;16.10;93.00;;;;;;5012564;28;20416;-45
2024/02/14 03:56:17;;;;;;;3.00;1.80;;;16.10;93.00;;;;;;5012555;28;20028;-45
2024/02/14 03:58:42;;;;;;;2.88;1.98;;;16.10;93.00;;;;;;5012423;28;20030;-43
2024/02/14 04:01:08;;;;;;;3.75;2.00;;;16.10;93.00;;;;;;5012785;28;20393;-44
2024/02/14 04:03:34;;;;;;;3.80;1.90;;;16.10;93.00;;;;;;5012437;28;20028;-44
2024/02/14 04:06:00;;;;;;;2.40;1.70;;;16.10;93.00;;;;;;5012301;28;20476;-43
2024/02/14 04:08:26;;;;;;;2.85;1.95;;;16.10;93.00;;;;;;5012527;28;20021;-41
2024/02/14 04:10:53;;;;;;;3.50;1.98;;;16.10;93.00;;;;;;5012441;28;20038;-44
2024/02/14 04:13:19;;;;;;;3.15;1.80;;;16.10;92.90;;;;;;5012340;28;20034;-44
2024/02/14 04:15:46;;;;;;;3.55;1.75;;;16.10;92.90;;;;;;5012885;28;20129;-44
2024/02/14 04:18:14;;;;;;;2.60;1.80;;;16.10;92.90;;;;;;5012225;28;20026;-44
2024/02/14 04:20:41;;;;;;;3.40;1.80;;;16.10;92.90;;;;;;5012233;28;20419;-44
2024/02/14 04:23:07;;;;;;;4.03;1.80;;;16.10;92.90;;;;;;5012307;28;20388;-45
2024/02/14 04:25:33;;;;;;;3.13;1.80;;;16.00;92.90;;;;;;5011820;28;20032;-44
2024/02/14 04:27:59;;;;;;;2.58;1.48;;;16.10;92.90;;;;;;5012474;28;20116;-44
2024/02/14 04:30:25;;;;;;;2.67;1.80;;;16.00;92.90;;;;;;5012083;28;20117;-45
2024/02/14 04:32:51;;;;;;;3.88;2.00;;;16.00;92.90;;;;;;5011854;28;20393;-43
2024/02/14 04:35:19;;;;;;;3.67;1.73;;;16.00;92.90;;;;;;5011793;28;20026;-44
2024/02/14 04:37:46;;;;;;;2.90;1.58;;;16.00;92.90;;;;;;5011851;28;20403;-44
2024/02/14 04:40:12;;;;;;;3.00;1.80;;;16.00;92.90;;;;;;5011805;28;20026;-43
2024/02/14 04:42:38;;;;;;;3.08;1.73;;;16.00;92.90;;;;;;5012305;28;20044;-44
2024/02/14 04:45:04;;;;;;;3.20;2.03;;;16.00;92.90;;;;;;5012978;28;20101;-45
2024/02/14 04:47:30;;;;;;;3.47;1.75;;;16.00;92.90;;;;;;5011885;28;20428;-45
2024/02/14 04:49:55;;;;;;;2.42;1.50;;;16.00;92.90;;;;;;5011649;28;20036;-44
2024/02/14 04:52:21;;;;;;;2.45;1.60;;;16.00;92.90;;;;;;5011739;28;20026;-45
2024/02/14 04:54:47;;;;;;;2.40;1.50;;;16.00;92.90;;;;;;5011930;28;20104;-42
2024/02/14 04:57:12;;;;;;;2.63;1.50;;;16.00;92.90;;;;;;5011662;28;20030;-44
2024/02/14 04:59:38;;;;;;;2.20;1.58;;;16.00;92.90;;;;;;5011539;28;20442;-42
2024/02/14 05:02:04;;;;;;;2.45;1.67;;;16.00;92.90;;;;;;5011510;28;20473;-42
2024/02/14 05:04:31;;;;;;;2.58;1.65;;;16.00;92.90;;;;;;5011364;28;20088;-44
2024/02/14 05:06:57;;;;;;;2.35;1.55;;;16.00;92.80;;;;;;5011722;28;20033;-44
2024/02/14 05:09:22;;;;;;;2.45;1.50;;;16.00;93.20;;;;;;5011460;28;20464;-45
2024/02/14 05:11:48;;;;;;;3.28;1.95;;;16.00;92.80;;;;;;5011508;28;20061;-42
2024/02/14 05:14:14;;;;;;;3.35;1.70;;;15.90;92.80;;;;;;5011611;28;20045;-44
2024/02/14 05:16:40;;;;;;;3.50;2.05;;;15.90;92.90;;;;;;5011224;28;20026;-44
2024/02/14 05:19:06;;;;;;;2.88;1.65;;;15.80;92.80;;;;;;5011307;28;20400;-44
2024/02/14 05:21:31;;;;;;;2.47;1.55;;;15.80;93.20;;;;;;5011423;28;20030;-42
2024/02/14 05:23:57;;;;;;;3.35;1.80;;;15.70;92.90;;;;;;5011281;28;20030;-42
2024/02/14 05:26:23;;;;;;;2.60;1.80;;;15.70;93.00;;;;;;5011476;28;20036;-43
2024/02/14 05:28:49;;;;;;;3.78;1.90;;;15.60;93.10;;;;;;5011248;28;20053;-44
2024/02/14 05:31:16;;;;;;;2.05;1.40;;;15.50;93.10;;;;;;5011932;28;20045;-44
2024/02/14 05:33:43;;;;;;;2.78;1.70;;;15.40;93.20;;;;;;5011848;28;20045;-43
2024/02/14 05:36:08;;;;;;;3.08;2.00;;;15.40;93.30;;;;;;5011960;28;20022;-44
2024/02/14 05:38:34;;;;;;;3.58;1.83;;;15.30;93.30;;;;;;5012135;28;20032;-42
2024/02/14 05:41:01;;;;;;;2.63;1.50;;;15.30;93.40;;;;;;5011224;28;20066;-45
2024/02/14 05:43:26;;;;;;;2.13;1.50;;;15.10;93.50;;;;;;5012554;28;20132;-44
2024/02/14 05:45:52;;;;;;;3.97;2.30;;;15.10;93.60;;;;;;5014809;28;20105;-45
2024/02/14 05:48:19;;;;;;;5.43;2.40;;;15.00;92.80;;;;;;5014964;28;20580;-44
2024/02/14 05:50:45;;;;;;;6.13;2.45;;;14.90;92.10;;;;;;5014929;28;20030;-40
2024/02/14 05:53:12;;;;;;;4.18;2.10;;;14.80;92.10;;;;;;5014970;28;20094;-43
2024/02/14 05:55:38;;;;;;;4.43;2.13;;;14.70;92.30;;;;;;5015422;28;20076;-45
2024/02/14 05:58:04;;;;;;;4.30;2.22;;;14.60;92.50;;;;;;5014740;28;20038;-43
2024/02/14 06:00:30;;;;;;;3.35;2.10;;;14.50;92.70;;;;;;5015087;28;20034;-45
2024/02/14 06:02:58;;;;;;;6.43;2.30;;;14.40;92.90;;;;;;5015117;28;20441;-45
2024/02/14 06:05:24;;;;;;;4.63;2.50;;;14.30;93.10;;;;;;5014716;28;20022;-45
2024/02/14 06:07:50;;;;;;;4.07;2.35;;;14.30;93.30;;;;;;5015036;28;20022;-41
2024/02/14 06:10:16;;;;;;;4.60;2.00;;;14.20;93.50;;;;;;5015432;28;20018;-46
2024/02/14 06:12:43;;;;;;;6.32;2.15;;;14.10;93.70;;;;;;5015060;28;20029;-45
2024/02/14 06:15:09;;;;;;;3.80;2.20;;;14.00;93.80;;;;;;5014916;28;20033;-45
2024/02/14 06:17:34;;;;;;;3.28;1.95;;;14.00;93.90;;;;;;5014855;28;20018;-45
2024/02/14 06:20:05;;;;;;;3.88;2.25;;;13.90;94.10;;;;;;5014707;28;20026;-44
2024/02/14 06:22:32;;;;;;;3.58;2.08;;;13.80;94.20;;;;;;5014448;28;20113;-45
2024/02/14 06:24:58;;;;;;;3.55;2.10;;;13.80;94.30;;;;;;5014261;28;20038;-45
2024/02/14 06:27:24;;;;;;;4.55;1.88;;;13.80;94.50;;;;;;5014536;28;20273;-45
2024/02/14 06:29:49;;;;;;;4.38;2.28;;;13.70;94.50;;;;;;5014443;28;20022;-44
2024/02/14 06:32:15;;;;;;;4.07;2.08;;;13.60;94.70;;;;;;5014369;28;20057;-44
2024/02/14 06:34:40;;;;;;;3.58;1.90;;;13.60;94.80;;;;;;5013802;28;20525;-45
2024/02/14 06:37:06;;;;;;;2.72;1.70;;;13.50;94.90;;;;;;5014236;28;20492;-45
2024/02/14 06:39:32;;;;;;;4.57;1.90;;;13.50;95.40;;;;;;5014581;28;20037;-45
2024/02/14 06:41:57;;;;;;;3.40;2.10;;;13.40;95.20;;;;;;5014352;28;20428;-42
2024/02/14 06:44:24;;;;;;;5.00;2.20;;;13.40;95.30;;;;;;5014028;28;20041;-45
2024/02/14 06:46:50;;;;;;;3.03;1.90;;;13.30;95.40;;;;;;5014202;28;20480;-43
2024/02/14 06:49:18;;;;;;;3.92;2.20;;;13.30;95.50;;;;;;5014212;28;20018;-45
2024/02/14 06:51:45;;;;;;;4.10;1.80;;;13.30;95.60;;;;;;5015023;28;20030;-44
2024/02/14 06:54:12;;;;;;;3.55;1.67;;;13.30;95.70;;;;;;5013501;28;20492;-44
2024/02/14 06:56:38;;;;;;;2.40;1.50;;;13.30;95.80;;;;;;5013020;28;20502;-45
2024/02/14 06:59:04;;;;;;;3.10;1.60;;;13.30;95.90;;;;;;5013522;28;20022;-44
2024/02/14 07:01:30;;;;;;;3.30;1.67;;;13.30;96.00;;;;;;5014495;28;20399;-45
2024/02/14 07:03:56;;;;;;;3.53;1.80;;;13.30;96.40;;;;;;5014480;28;20022;-45
2024/02/14 07:06:22;;;;;;;4.18;1.80;;;13.30;96.00;;;;;;4996067;28;20057;-45
2024/02/14 07:08:48;;;;;;;3.13;1.70;;;13.40;96.10;;;;;;5013922;28;20236;-45
2024/02/14 07:11:15;;;;;;;3.30;1.80;;;13.40;96.00;;;;;;5013813;28;20557;-45
2024/02/14 07:13:41;;;;;;;3.40;1.98;;;13.50;96.00;;;;;;5013369;28;20024;-43
2024/02/14 07:16:07;;;;;;;2.67;1.70;;;13.50;96.00;;;;;;5013300;28;20033;-44
2024/02/14 07:18:34;;;;;;;3.08;1.75;;;13.50;95.90;;;;;;5013354;28;20058;-45
2024/02/14 07:20:59;;;;;;;3.25;1.73;;;13.60;95.90;;;;;;5013701;28;20407;-44
2024/02/14 07:23:26;;;;;;;2.53;1.30;;;13.70;95.80;;;;;;5013667;28;20021;-44
2024/02/14 07:25:51;;;;;;;2.72;1.83;;;13.70;95.80;;;;;;5012948;28;20034;-43
2024/02/14 07:28:17;;;;;;;4.15;1.85;;;13.70;95.70;;;;;;5012997;28;20411;-43
2024/02/14 07:30:43;;;;;;;1.83;1.40;;;13.80;95.70;;;;;;5013165;28;20029;-45
2024/02/14 07:33:09;;;;;;;2.85;1.30;;;13.80;95.60;;;;;;5013663;28;20026;-41
2024/02/14 07:35:37;;;;;;;2.97;1.58;;;13.90;95.60;;;;;;5013064;28;20037;-45
2024/02/14 07:38:03;;;;;;;3.17;1.70;;;13.90;95.90;;;;;;5012985;28;20045;-45
2024/02/14 07:40:30;;;;;;;2.70;1.63;;;14.00;95.50;;;;;;5012900;28;20492;-45
2024/02/14 07:42:57;;;;;;;3.03;1.73;;;14.00;95.50;;;;;;5011809;28;20033;-44
2024/02/14 07:45:22;;;;;;;3.10;1.52;;;14.00;95.40;;;;;;5012736;28;20073;-46
2024/02/14 07:47:49;;;;;;;3.83;1.65;;;14.10;95.00;;;;;;5012700;28;20025;-45
2024/02/14 07:50:16;;;;;;;2.55;1.50;;;14.10;94.40;;;;;;5012683;28;20026;-46
2024/02/14 07:52:44;;;;;;;5.32;1.58;;;14.10;94.30;;;;;;5012809;28;20118;-45
2024/02/14 07:55:12;;;;;;;1.83;1.10;;;14.20;94.30;;;;;;5012539;28;20022;-43
2024/02/14 07:57:38;;;;;;;3.13;1.33;;;14.20;94.30;;;;;;5012756;28;20396;-45
2024/02/14 08:00:08;;;;;;;3.50;1.20;;;14.30;94.30;;;;;;5012548;28;20061;-46
2024/02/14 08:02:34;;;;;;;3.42;1.55;;;14.30;94.30;;;;;;5012472;28;20026;-46
2024/02/14 08:05:00;;;;;;;3.83;1.50;;;14.30;94.30;;;;;;5012488;28;20209;-46
2024/02/14 08:07:27;;;;;;;5.45;1.40;;;14.40;94.30;;;;;;5012018;28;20500;-46
2024/02/14 08:09:53;;;;;;;3.28;1.40;;;14.40;94.30;;;;;;5012306;28;20026;-46
2024/02/14 08:12:18;;;;;;;1.60;1.23;;;14.50;94.30;;;;;;5012442;28;20029;-45
2024/02/14 08:14:44;;;;;;;3.15;1.40;;;14.50;94.30;;;;;;5011440;28;20022;-44
2024/02/14 08:17:10;;;;;;;3.67;1.40;;;14.50;94.30;;;;;;5012415;28;20056;-45
2024/02/14 08:19:36;;;;;;;3.28;1.50;;;14.60;94.20;;;;;;5012118;28;20155;-46
2024/02/14 08:22:02;;;;;;;2.50;1.30;;;14.60;94.20;;;;;;5012206;28;20365;-46
2024/02/14 08:24:28;;;;;;;3.25;1.50;;;14.70;94.20;;;;;;5012273;28;20033;-45
2024/02/14 08:26:54;;;;;;;2.90;1.30;;;14.70;94.20;;;;;;5012046;28;20026;-45
2024/02/14 08:29:20;;;;;;;3.92;1.40;;;14.70;94.20;;;;;;5012024;28;20089;-46
2024/02/14 08:31:46;;;;;;;3.13;1.48;;;14.80;94.20;;;;;;5012189;28;20025;-45
2024/02/14 08:34:12;;;;;;;2.03;1.08;;;14.80;94.20;;;;;;5012464;28;20362;-45
2024/02/14 08:36:41;;;;;;;2.30;1.30;;;14.80;94.10;;;;;;5012158;28;20413;-45
2024/02/14 08:39:07;;;;;;;2.63;1.13;;;14.90;94.10;;;;;;5011740;28;20069;-45
2024/02/14 08:41:33;;;;;;;2.67;1.30;;;14.90;94.10;;;;;;5001587;28;20578;-45
2024/02/14 08:43:59;;;;;;;3.10;1.25;;;15.00;94.10;;;;;;5012056;28;20069;-44
2024/02/14 08:46:25;;;;;;;2.17;1.20;;;15.00;94.00;;;;;;5011909;28;20049;-43
2024/02/14 08:48:51;;;;;;;2.83;1.27;;;15.00;94.30;;;;;;5011877;28;20022;-44
2024/02/14 08:51:20;;;;;;;2.90;1.20;;;15.00;93.90;;;;;;5011859;28;20021;-46
2024/02/14 08:53:45;;;;;;;2.13;1.05;;;15.10;93.90;;;;;;5011702;28;20029;-42
2024/02/14 08:56:12;;;;;;;1.83;1.05;;;15.10;93.90;;;;;;5011922;28;20018;-44
2024/02/14 08:58:37;;;;;;;4.45;1.05;;;15.20;93.90;;;;;;5012606;28;20108;-45
2024/02/14 09:01:03;;;;;;;2.63;1.10;;;15.20;93.90;;;;;;5011570;28;20575;-45
2024/02/14 09:03:31;;;;;;;2.35;1.20;;;15.20;93.80;;;;;;5011610;28;20077;-45
2024/02/14 09:05:57;;;;;;;2.75;1.00;;;15.30;93.80;;;;;;5011242;28;20065;-45
2024/02/14 09:08:23;;;;;;;4.00;1.38;;;15.20;93.70;;;;;;5011467;28;20044;-45
2024/02/14 09:10:52;;;;;;;2.83;1.35;;;15.30;93.70;;;;;;5011426;28;20022;-45
2024/02/14 09:13:18;;;;;;;1.55;0.88;;;15.30;93.70;;;;;;5011534;28;20085;-45
2024/02/14 09:15:44;;;;;;;1.83;1.15;;;15.40;93.70;;;;;;5011362;28;20026;-45
2024/02/14 09:18:09;;;;;;;3.42;1.58;;;15.40;93.70;;;;;;5012066;28;20069;-44
2024/02/14 09:20:35;;;;;;;2.88;1.50;;;15.40;93.40;;;;;;5015771;28;20041;-44
2024/02/14 09:23:01;;;;;;;2.38;1.20;;;15.40;93.00;;;;;;5016477;28;20108;-41
2024/02/14 09:25:26;;;;;;;2.25;1.35;;;15.40;92.70;;;;;;5015167;28;20034;-45
2024/02/14 09:27:52;;;;;;;4.07;1.70;;;15.40;92.50;;;;;;5015237;28;20026;-45
2024/02/14 09:30:18;;;;;;;7.95;1.63;;;15.40;92.40;;;;;;5015255;28;20101;-45
2024/02/14 09:32:45;;;;;;;4.82;1.50;;;15.50;92.70;;;;;;5015407;28;20157;-45
2024/02/14 09:35:10;;;;;;;4.03;1.42;;;15.50;92.40;;;;;;5015451;28;20034;-43
2024/02/14 09:37:38;;;;;;;5.05;1.48;;;15.50;92.50;;;;;;5015148;28;20034;-45
2024/02/14 09:40:05;;;;;;;2.50;1.10;;;15.50;92.50;;;;;;5015122;28;20029;-45
2024/02/14 09:42:48;;;;;;;2.65;1.25;;;15.60;92.50;;;;;;5015381;28;20033;-45
2024/02/14 09:45:15;;;;;;;3.13;1.35;;;15.60;92.50;;;;;;5015079;28;20030;-43
2024/02/14 09:47:42;;;;;;;2.83;1.30;;;15.60;92.60;;;;;;5015112;28;20499;-43
2024/02/14 09:50:09;;;;;;;2.25;1.30;;;15.70;92.90;;;;;;5014964;28;20029;-44
2024/02/14 09:52:36;;;;;;;2.25;1.17;;;15.60;92.60;;;;;;5014998;28;20022;-45
2024/02/14 09:55:04;;;;;;;2.65;1.20;;;15.70;92.60;;;;;;5014958;28;20034;-44
2024/02/14 09:57:31;;;;;;;3.67;1.48;;;15.70;92.60;;;;;;5016059;28;20021;-43
2024/02/14 10:00:00;;;;;;;7.07;1.05;;;15.70;92.60;;;;;;5016655;28;20029;-44
2024/02/14 10:02:25;;;;;;;3.08;1.30;;;15.70;92.90;;;;;;5014809;28;20029;-45
2024/02/14 10:04:51;;;;;;;3.42;1.55;;;15.80;92.60;;;;;;5014609;28;20038;-44
2024/02/14 10:07:17;;;;;;;2.80;1.27;;;15.80;92.60;;;;;;5014601;28;20025;-46
2024/02/14 10:09:43;;;;;;;2.22;1.20;;;15.90;92.70;;;;;;5014546;28;20030;-45
2024/02/14 10:12:09;;;;;;;3.85;1.40;;;15.90;92.70;;;;;;5014652;28;20061;-44
2024/02/14 10:14:38;;;;;;;1.77;1.10;;;16.00;92.70;;;;;;5014371;28;20388;-44
2024/02/14 10:17:04;;;;;;;2.33;1.25;;;16.00;92.70;;;;;;5014747;28;20429;-44
2024/02/14 10:19:30;;;;;;;2.22;1.00;;;16.10;92.70;;;;;;5014899;28;20476;-44
2024/02/14 10:22:00;;;;;;;2.38;1.17;;;16.20;92.70;;;;;;5014336;28;20041;-45
2024/02/14 10:24:27;;;;;;;3.70;1.30;;;16.20;92.70;;;;;;5014133;28;20442;-44
2024/02/14 10:26:53;;;;;;;2.30;1.00;;;16.30;92.70;;;;;;5014316;28;20025;-44
2024/02/14 10:29:20;;;;;;;2.63;1.17;;;16.30;92.60;;;;;;5014095;28;20026;-44
2024/02/14 10:31:46;;;;;;;2.47;1.10;;;16.40;92.60;;;;;;5014215;28;20026;-45
2024/02/14 10:34:12;;;;;;;2.60;1.17;;;16.50;92.50;;;;;;5013976;28;20030;-45
2024/02/14 10:36:40;;;;;;;2.08;1.10;;;16.50;92.40;;;;;;5013999;28;20033;-46
2024/02/14 10:39:07;;;;;;;2.03;0.88;;;16.60;92.40;;;;;;5014037;28;20032;-44
2024/02/14 10:41:35;;;;;;;2.17;1.08;;;16.70;92.30;;;;;;5014089;28;20034;-44
2024/02/14 10:44:03;;;;;;;2.78;1.10;;;16.80;92.30;;;;;;5013926;28;20369;-44
2024/02/14 10:46:33;;;;;;;3.10;0.80;;;16.80;92.20;;;;;;5013853;28;20032;-46
2024/02/14 10:49:06;;;;;;;1.60;0.90;;;16.90;92.20;;;;;;5013859;28;20030;-45
2024/02/14 10:51:35;;;;;;;1.60;1.00;;;17.00;92.20;;;;;;5014635;28;20431;-45
2024/02/14 10:54:06;;;;;;;1.48;0.85;;;17.10;92.10;;;;;;5013808;28;20439;-45
2024/02/14 10:56:32;;;;;;;2.30;1.00;;;17.10;92.10;;;;;;5013643;28;20045;-45
2024/02/14 10:59:01;;;;;;;2.13;1.00;;;17.20;92.00;;;;;;5013558;28;20473;-45
2024/02/14 11:01:30;;;;;;;2.35;0.98;;;17.20;91.90;;;;;;5014035;28;20030;-44
2024/02/14 11:03:58;;;;;;;1.60;0.93;;;17.30;91.80;;;;;;5013964;28;20029;-45
2024/02/14 11:06:24;;;;;;;1.17;0.73;;;17.40;91.80;;;;;;5013568;28;20018;-44
2024/02/14 11:09:07;;;;;;;1.67;0.73;;;17.40;91.60;;;;;;5013386;28;20095;-44
2024/02/14 11:11:33;;;;;;;1.73;0.90;;;17.50;91.60;;;;;;5013414;28;20018;-44
2024/02/14 11:13:59;;;;;;;2.90;0.90;;;17.50;91.40;;;;;;5013720;28;20068;-45
2024/02/14 11:16:28;;;;;;;1.00;0.70;;;17.60;91.40;;;;;;5013841;28;20096;-45
2024/02/14 11:19:09;;;;;;;1.23;0.80;;;17.60;91.30;;;;;;5013999;28;20093;-43
2024/02/14 11:21:48;;;;;;;2.80;0.90;;;17.60;91.20;;;;;;5014492;28;20021;-45
2024/02/14 11:24:15;;;;;;;1.45;0.90;;;17.70;91.20;;;;;;5014556;28;20556;-45
2024/02/14 11:26:51;;;;;;;1.55;1.00;;;17.70;91.20;;;;;;5013878;28;20033;-45
2024/02/14 11:29:18;;;;;;;1.67;0.90;;;17.70;91.10;;;;;;5013946;28;20267;-45
2024/02/14 11:31:47;;;;;;;1.40;0.90;;;17.70;91.10;;;;;;5013233;28;20026;-41
2024/02/14 11:34:14;;;;;;;2.13;1.10;;;17.70;91.40;;;;;;5013027;28;20021;-45
2024/02/14 11:36:44;;;;;;;2.40;1.08;;;17.70;91.40;;;;;;5011829;28;20029;-44
2024/02/14 11:39:14;;;;;;;1.80;0.90;;;17.70;91.10;;;;;;5013618;28;20038;-45
2024/02/14 11:41:42;;;;;;;1.73;0.88;;;17.60;91.10;;;;;;5012420;28;20044;-45
2024/02/14 11:44:08;;;;;;;1.10;0.70;;;17.60;91.10;;;;;;5012783;28;20025;-45
2024/02/14 11:46:35;;;;;;;0.98;0.77;;;17.60;91.10;;;;;;5012637;28;20029;-44
2024/02/14 11:49:02;;;;;;;2.28;0.90;;;17.60;91.10;;;;;;5012603;28;20029;-46
2024/02/14 11:51:37;;;;;;;0.90;0.80;;;17.70;91.10;;;;;;5012784;28;20404;-46
2024/02/14 11:54:06;;;;;;;1.52;0.90;;;17.70;91.20;;;;;;5012753;28;20095;-44
2024/02/14 11:56:37;;;;;;;1.83;1.10;;;17.70;91.20;;;;;;5012506;28;20025;-45
2024/02/14 11:59:04;;;;;;;2.05;1.27;;;17.70;91.20;;;;;;5012539;28;20480;-44
2024/02/14 12:01:35;;;;;;;1.95;1.23;;;17.70;91.20;;;;;;5012496;28;20042;-45
2024/02/14 12:04:03;;;;;;;2.47;1.20;;;17.70;91.20;;;;;;5012668;28;20038;-44
2024/02/14 12:06:31;;;;;;;2.35;1.40;;;17.70;91.20;;;;;;5012824;28;20103;-44
2024/02/14 12:09:01;;;;;;;2.85;1.55;;;17.70;91.20;;;;;;5012632;28;20026;-45
2024/02/14 12:11:29;;;;;;;3.72;1.85;;;17.70;91.10;;;;;;5012436;28;20109;-45
2024/02/14 12:13:54;;;;;;;3.50;1.70;;;17.80;91.10;;;;;;5012403;28;20029;-44
2024/02/14 12:16:21;;;;;;;4.55;1.60;;;17.80;91.10;;;;;;5012440;28;20439;-44
2024/02/14 12:18:47;;;;;;;3.47;1.65;;;17.80;91.10;;;;;;5012802;28;20070;-45
2024/02/14 12:21:13;;;;;;;2.78;1.58;;;17.80;91.00;;;;;;5012909;28;20064;-45
2024/02/14 12:23:38;;;;;;;3.30;1.45;;;17.90;91.10;;;;;;5012586;28;20484;-44
2024/02/14 12:26:05;;;;;;;2.70;1.42;;;17.90;91.00;;;;;;5012071;28;20117;-45
2024/02/14 12:28:31;;;;;;;2.45;1.40;;;17.80;90.90;;;;;;5012809;28;20092;-45
2024/02/14 12:30:57;;;;;;;2.85;1.23;;;17.90;90.90;;;;;;5012657;28;20022;-44
2024/02/14 12:33:24;;;;;;;1.77;1.27;;;17.90;90.90;;;;;;5012799;28;20026;-45
2024/02/14 12:35:52;;;;;;;2.55;1.40;;;17.90;90.90;;;;;;5012112;28;20468;-45
2024/02/14 12:38:19;;;;;;;2.95;1.42;;;17.90;90.90;;;;;;5012307;28;20057;-45
2024/02/14 12:40:45;;;;;;;1.83;1.17;;;17.90;90.90;;;;;;5011986;28;20033;-44
2024/02/14 12:43:12;;;;;;;2.05;1.13;;;17.90;90.90;;;;;;5011934;28;20034;-45
2024/02/14 12:45:38;;;;;;;2.50;1.30;;;17.90;90.90;;;;;;5010878;28;20118;-44